createdAt,value
2022-10-15T00:00:30.424Z,98514.48
2022-10-15T00:03:30.113Z,98506.81
2022-10-15T00:06:25.955Z,98515.91
2022-10-15T00:09:21.776Z,98513.45
2022-10-15T00:12:17.863Z,98513.63
2022-10-15T00:15:10.989Z,98514.61
2022-10-15T00:19:24.821Z,98510.16
2022-10-15T00:22:21.006Z,98507.30
2022-10-15T00:25:13.985Z,98509.21
2022-10-15T00:28:05.965Z,98507.50
2022-10-15T00:31:10.719Z,98502.19
2022-10-15T00:34:02.981Z,98500.19
2022-10-15T00:36:54.688Z,98499.59
2022-10-15T00:39:47.422Z,98490.66
2022-10-15T00:42:39.007Z,98489.68
2022-10-15T00:45:30.882Z,98486.73
2022-10-15T00:48:22.897Z,98486.13
2022-10-15T00:51:15.472Z,98483.80
2022-10-15T00:54:07.502Z,98485.45
2022-10-15T00:56:55.885Z,98483.43
2022-10-15T00:59:52.438Z,98476.27
2022-10-15T01:02:39.454Z,98476.73
2022-10-15T03:10:40.970Z,98376.02
2022-10-15T03:13:28.981Z,98377.71
2022-10-15T03:16:16.108Z,98375.36
2022-10-15T03:19:04.424Z,98374.52
2022-10-15T03:21:51.656Z,98372.09
2022-10-15T03:24:39.348Z,98364.10
2022-10-15T03:27:26.944Z,98354.31
2022-10-15T03:30:13.974Z,98352.60
2022-10-15T03:33:01.980Z,98350.36
2022-10-15T03:35:49.766Z,98358.09
2022-10-15T03:38:38.224Z,98358.73
2022-10-15T03:41:25.424Z,98352.45
2022-10-15T03:44:14.094Z,98355.42
2022-10-15T03:47:03.785Z,98358.00
2022-10-15T03:49:58.953Z,98357.02
2022-10-15T03:52:45.855Z,98346.98
2022-10-15T03:55:33.367Z,98347.15
2022-10-15T03:58:20.781Z,98333.42
2022-10-15T04:01:18.301Z,98340.23
2022-10-15T04:04:05.402Z,98340.73
2022-10-15T04:06:52.257Z,98343.02
2022-10-15T04:09:39.319Z,98343.77
2022-10-15T04:12:41.860Z,98341.19
2022-10-15T04:15:31.083Z,98342.05
2022-10-15T04:18:22.190Z,98335.37
2022-10-15T04:21:11.885Z,98337.96
2022-10-15T04:23:59.176Z,98337.02
2022-10-15T04:26:51.835Z,98333.46
2022-10-15T04:29:39.527Z,98325.67
2022-10-15T04:32:32.395Z,98325.55
2022-10-15T04:35:19.846Z,98326.30
2022-10-15T04:38:32.718Z,98320.77
2022-10-15T04:41:21.718Z,98315.50
2022-10-15T04:44:30.079Z,98315.05
2022-10-15T04:47:18.105Z,98313.98
2022-10-15T04:50:10.092Z,98316.92
2022-10-15T04:53:15.378Z,98313.87
2022-10-15T04:56:08.394Z,98318.08
2022-10-15T04:58:55.365Z,98310.84
2022-10-15T05:01:43.906Z,98311.97
2022-10-15T05:04:31.488Z,98308.71
2022-10-15T05:07:18.522Z,98311.23
2022-10-15T05:10:07.320Z,98318.64
2022-10-15T05:12:56.795Z,98312.75
2022-10-15T05:15:50.428Z,98312.94
2022-10-15T05:18:39.545Z,98309.73
2022-10-15T05:21:28.203Z,98315.39
2022-10-15T05:24:17.203Z,98312.77
2022-10-15T05:27:15.353Z,98319.95
2022-10-15T05:30:03.022Z,98323.11
2022-10-15T05:33:05.398Z,98318.54
2022-10-15T05:35:53.866Z,98316.45
2022-10-15T05:38:41.513Z,98308.85
2022-10-15T05:41:29.583Z,98307.16
2022-10-15T05:44:16.784Z,98303.09
2022-10-15T05:47:03.980Z,98305.38
2022-10-15T05:49:51.807Z,98306.52
2022-10-15T05:52:46.371Z,98317.14
2022-10-15T05:55:44.832Z,98325.80
2022-10-15T05:58:37.183Z,98327.91
2022-10-15T06:01:24.613Z,98326.42
2022-10-15T06:04:11.861Z,98329.84
2022-10-15T06:06:59.281Z,98328.65
2022-10-15T06:09:46.003Z,98332.66
2022-10-15T06:12:32.926Z,98333.45
2022-10-15T06:15:19.979Z,98331.77
2022-10-15T06:18:07.477Z,98334.86
2022-10-15T06:20:54.614Z,98334.42
2022-10-15T06:23:41.483Z,98337.75
2022-10-15T06:26:28.081Z,98337.95
2022-10-15T06:29:15.073Z,98338.23
2022-10-15T06:32:12.748Z,98338.70
2022-10-15T06:35:02.854Z,98336.11
2022-10-15T06:37:49.497Z,98334.21
2022-10-15T06:40:37.463Z,98341.08
2022-10-15T06:43:24.760Z,98341.59
2022-10-15T06:46:11.972Z,98339.22
2022-10-15T06:48:59.106Z,98343.20
2022-10-15T06:51:46.073Z,98345.21
2022-10-15T06:54:33.500Z,98347.44
2022-10-15T06:57:21.040Z,98344.88
2022-10-15T07:00:08.468Z,98347.80
2022-10-15T07:02:55.523Z,98349.54
2022-10-15T07:05:43.143Z,98349.69
2022-10-15T07:08:30.160Z,98352.51
2022-10-15T07:11:18.205Z,98357.15
2022-10-15T07:14:05.050Z,98359.31
2022-10-15T07:16:52.117Z,98356.19
2022-10-15T07:19:44.089Z,98359.15
2022-10-15T07:22:30.811Z,98363.15
2022-10-15T07:25:17.842Z,98361.08
2022-10-15T07:28:05.937Z,39343.00
2022-10-15T07:30:53.511Z,-1.00
2022-10-15T07:33:42.988Z,-1.00
2022-10-15T07:36:29.875Z,-1.00
2022-10-15T07:39:19.201Z,-1.00
2022-10-15T07:42:06.286Z,-1.00
2022-10-15T07:44:52.964Z,-1.00
2022-10-15T07:47:41.902Z,-1.00
2022-10-15T07:50:34.287Z,-1.00
2022-10-15T07:53:26.682Z,-1.00
2022-10-15T07:56:16.751Z,-1.00
2022-10-15T07:59:03.647Z,-1.00
2022-10-15T08:01:51.425Z,-1.00
2022-10-15T08:04:38.194Z,-1.00
2022-10-15T08:07:24.808Z,-1.00
2022-10-15T08:10:13.578Z,-1.00
2022-10-15T08:13:00.472Z,-1.00
2022-10-15T08:15:47.766Z,-1.00
2022-10-15T08:18:35.035Z,-1.00
2022-10-15T08:21:22.132Z,-1.00
2022-10-15T08:24:08.841Z,-1.00
2022-10-15T08:26:58.686Z,-1.00
2022-10-15T08:29:46.650Z,-1.00
2022-10-15T08:32:33.960Z,-1.00
2022-10-15T08:35:20.720Z,-1.00
2022-10-15T08:38:07.532Z,-1.00
2022-10-15T08:40:57.474Z,-1.00
2022-10-15T08:43:46.790Z,-1.00
2022-10-15T08:46:51.029Z,-1.00
2022-10-15T08:49:45.599Z,-1.00
2022-10-15T08:52:51.620Z,-1.00
2022-10-15T08:55:41.210Z,-1.00
2022-10-15T08:58:46.333Z,-1.00
2022-10-15T09:01:52.375Z,-1.00
2022-10-15T09:04:52.543Z,-1.00
2022-10-15T09:08:21.238Z,-1.00
2022-10-15T09:11:17.359Z,-1.00
2022-10-15T09:14:06.297Z,-1.00
2022-10-15T09:16:53.073Z,-1.00
2022-10-15T09:19:41.356Z,-1.00
2022-10-15T09:22:31.008Z,-1.00
2022-10-15T09:25:21.159Z,-1.00
2022-10-15T09:28:11.491Z,-1.00
2022-10-15T09:31:00.025Z,-1.00
2022-10-15T09:33:53.716Z,-1.00
2022-10-15T09:36:54.219Z,-1.00
2022-10-15T09:39:51.567Z,-1.00
2022-10-15T09:42:41.324Z,-1.00
2022-10-15T09:45:29.251Z,-1.00
2022-10-15T09:48:19.383Z,-1.00
2022-10-15T09:51:28.089Z,-1.00
2022-10-15T09:54:27.501Z,-1.00
2022-10-15T09:57:16.694Z,-1.00
2022-10-15T10:00:10.777Z,-1.00
2022-10-15T10:03:07.204Z,-1.00
2022-10-15T10:06:21.621Z,-1.00
2022-10-15T10:09:17.403Z,-1.00
2022-10-15T10:12:07.835Z,-1.00
2022-10-15T10:15:00.813Z,-1.00
2022-10-15T10:17:55.914Z,-1.00
2022-10-15T10:20:59.618Z,-1.00
2022-10-15T10:23:47.046Z,-1.00
2022-10-15T10:26:36.257Z,-1.00
2022-10-15T10:29:36.787Z,-1.00
2022-10-15T10:32:31.588Z,-1.00
2022-10-15T10:35:24.303Z,-1.00
2022-10-15T10:38:27.539Z,-1.00
2022-10-15T10:41:14.386Z,-1.00
2022-10-15T10:44:02.979Z,-1.00
2022-10-15T10:47:08.675Z,-1.00
2022-10-15T10:49:59.235Z,-1.00
2022-10-15T10:52:46.251Z,-1.00
2022-10-15T10:55:39.302Z,-1.00
2022-10-15T10:58:31.042Z,-1.00
2022-10-15T11:01:17.926Z,-1.00
2022-10-15T11:07:20.469Z,-1.00
2022-10-15T11:10:23.329Z,-1.00
2022-10-15T11:13:32.503Z,-1.00
2022-10-15T11:16:32.750Z,-1.00
2022-10-15T11:20:05.896Z,-1.00
2022-10-15T11:23:15.195Z,-1.00
2022-10-15T11:26:59.124Z,-1.00
2022-10-15T11:30:22.030Z,-1.00
2022-10-15T11:33:13.347Z,-1.00
2022-10-15T11:36:29.387Z,-1.00
2022-10-15T11:39:54.763Z,-1.00
2022-10-15T11:42:59.922Z,-1.00
2022-10-15T11:46:00.429Z,-1.00
2022-10-15T11:49:00.434Z,-1.00
2022-10-15T11:52:11.690Z,-1.00
2022-10-15T11:55:11.672Z,-1.00
2022-10-15T11:58:02.795Z,-1.00
2022-10-15T12:00:54.067Z,-1.00
2022-10-15T12:03:49.359Z,-1.00
2022-10-15T12:06:43.081Z,-1.00
2022-10-15T12:09:39.696Z,-1.00
2022-10-15T12:12:29.573Z,-1.00
2022-10-15T12:15:30.683Z,-1.00
2022-10-15T12:18:44.501Z,-1.00
2022-10-15T12:21:41.103Z,-1.00
2022-10-15T12:24:44.840Z,-1.00
2022-10-15T12:27:36.857Z,-1.00
2022-10-15T12:30:26.878Z,-1.00
2022-10-15T12:33:25.647Z,-1.00
2022-10-15T12:36:30.655Z,-1.00
2022-10-15T12:39:47.594Z,-1.00
2022-10-15T12:42:40.310Z,-1.00
2022-10-15T12:45:40.227Z,-1.00
2022-10-15T12:48:38.670Z,-1.00
2022-10-15T12:51:25.714Z,-1.00
2022-10-15T12:54:41.739Z,-1.00
2022-10-15T12:57:31.645Z,-1.00
2022-10-15T13:00:35.777Z,-1.00
2022-10-15T13:03:27.725Z,-1.00
2022-10-15T13:06:20.837Z,-1.00
2022-10-15T13:09:10.557Z,-1.00
2022-10-15T13:12:00.199Z,-1.00
2022-10-15T13:14:52.628Z,-1.00
2022-10-15T13:17:40.088Z,-1.00
2022-10-15T13:20:42.333Z,-1.00
2022-10-15T13:23:32.144Z,-1.00
2022-10-15T13:26:24.926Z,-1.00
2022-10-15T13:29:16.700Z,-1.00
2022-10-15T13:32:05.425Z,-1.00
2022-10-15T13:34:52.483Z,-1.00
2022-10-15T13:37:41.142Z,-1.00
2022-10-15T13:40:30.353Z,-1.00
2022-10-15T13:43:25.467Z,-1.00
2022-10-15T13:46:15.535Z,-1.00
2022-10-15T13:49:10.422Z,-1.00
2022-10-15T13:51:57.758Z,-1.00
2022-10-15T13:54:47.005Z,-1.00
2022-10-15T13:57:34.259Z,-1.00
2022-10-15T14:00:30.260Z,-1.00
2022-10-15T14:03:25.161Z,-1.00
2022-10-15T14:06:19.586Z,-1.00
2022-10-15T14:09:27.071Z,-1.00
2022-10-15T14:12:14.224Z,-1.00
2022-10-15T14:15:39.375Z,-1.00
2022-10-15T14:18:36.496Z,-1.00
2022-10-15T14:21:29.254Z,-1.00
2022-10-15T14:24:20.508Z,-1.00
2022-10-15T14:27:15.143Z,-1.00
2022-10-15T14:30:02.733Z,-1.00
2022-10-15T14:32:54.103Z,-1.00
2022-10-15T14:35:41.114Z,-1.00
2022-10-15T14:38:29.113Z,-1.00
2022-10-15T14:41:29.046Z,-1.00
2022-10-15T14:44:19.479Z,-1.00
2022-10-15T14:47:06.328Z,-1.00
2022-10-15T14:49:56.495Z,-1.00
2022-10-15T14:52:51.325Z,-1.00
2022-10-15T14:55:44.192Z,-1.00
2022-10-15T14:58:31.174Z,-1.00
2022-10-15T15:01:20.173Z,-1.00
2022-10-15T15:04:06.717Z,-1.00
2022-10-15T15:06:53.437Z,-1.00
2022-10-15T15:09:41.945Z,-1.00
2022-10-15T15:12:31.475Z,-1.00
2022-10-15T15:15:21.597Z,-1.00
2022-10-15T15:18:12.010Z,-1.00
2022-10-15T15:21:13.112Z,-1.00
2022-10-15T15:24:00.201Z,-1.00
2022-10-15T15:26:46.870Z,-1.00
2022-10-15T15:29:33.534Z,-1.00
2022-10-15T15:32:21.856Z,-1.00
2022-10-15T15:35:35.409Z,-1.00
2022-10-15T15:38:30.972Z,-1.00
2022-10-15T15:41:22.771Z,-1.00
2022-10-15T15:44:12.225Z,-1.00
2022-10-15T15:46:58.964Z,-1.00
2022-10-15T15:49:45.656Z,-1.00
2022-10-15T15:52:35.282Z,-1.00
2022-10-15T15:55:23.803Z,-1.00
2022-10-15T15:58:10.865Z,-1.00
2022-10-15T16:00:57.714Z,-1.00
2022-10-15T16:03:45.839Z,-1.00
2022-10-15T16:06:32.495Z,-1.00
2022-10-15T16:09:22.679Z,-1.00
2022-10-15T16:12:09.799Z,-1.00
2022-10-15T16:17:49.309Z,-1.00
2022-10-15T16:20:40.681Z,-1.00
2022-10-15T16:23:29.510Z,-1.00
2022-10-15T16:26:17.532Z,-1.00
2022-10-15T16:29:04.434Z,-1.00
2022-10-15T16:31:51.488Z,-1.00
2022-10-15T16:34:39.327Z,-1.00
2022-10-15T16:37:26.354Z,-1.00
2022-10-15T16:40:13.362Z,-1.00
2022-10-15T16:43:00.763Z,-1.00
2022-10-15T16:45:55.489Z,-1.00
2022-10-15T16:48:43.120Z,-1.00
2022-10-15T16:54:18.189Z,-1.00
2022-10-15T16:57:04.916Z,-1.00
2022-10-15T16:59:52.126Z,-1.00
2022-10-15T17:02:38.767Z,-1.00
2022-10-15T17:05:25.914Z,-1.00
2022-10-15T17:08:14.529Z,-1.00
2022-10-15T17:11:02.191Z,-1.00
2022-10-15T17:13:59.667Z,-1.00
2022-10-15T17:16:49.658Z,-1.00
2022-10-15T17:19:36.820Z,-1.00
2022-10-15T17:22:25.459Z,-1.00
2022-10-15T17:25:12.590Z,-1.00
2022-10-15T17:27:59.569Z,-1.00
2022-10-15T17:30:46.562Z,-1.00
2022-10-15T17:33:34.806Z,-1.00
2022-10-15T17:36:23.135Z,-1.00
2022-10-15T17:39:11.118Z,-1.00
2022-10-15T17:41:57.842Z,-1.00
2022-10-15T17:44:45.055Z,-1.00
2022-10-15T17:47:31.970Z,-1.00
2022-10-15T17:50:19.039Z,-1.00
2022-10-15T17:53:08.321Z,-1.00
2022-10-15T17:55:58.904Z,-1.00
2022-10-15T17:58:46.743Z,-1.00
2022-10-15T18:01:58.262Z,-1.00
2022-10-15T18:04:46.857Z,-1.00
2022-10-15T18:07:34.575Z,-1.00
2022-10-15T18:10:21.312Z,-1.00
2022-10-15T18:13:10.851Z,-1.00
2022-10-15T18:15:57.579Z,-1.00
2022-10-15T18:18:44.643Z,-1.00
2022-10-15T18:21:31.578Z,-1.00
2022-10-15T18:24:22.138Z,-1.00
2022-10-15T18:27:08.903Z,-1.00
2022-10-15T18:29:58.585Z,-1.00
2022-10-15T18:32:45.056Z,-1.00
2022-10-15T18:35:36.297Z,-1.00
2022-10-15T18:38:23.198Z,-1.00
2022-10-15T18:41:19.490Z,-1.00
2022-10-15T18:44:12.669Z,-1.00
2022-10-15T18:47:00.380Z,-1.00
2022-10-15T18:49:47.040Z,-1.00
2022-10-15T18:52:40.504Z,-1.00
2022-10-15T18:55:29.702Z,-1.00
2022-10-15T18:58:16.419Z,-1.00
2022-10-15T19:01:24.685Z,-1.00
2022-10-15T19:04:14.933Z,-1.00
2022-10-15T19:07:04.869Z,-1.00
2022-10-15T19:09:52.125Z,-1.00
2022-10-15T19:12:40.688Z,-1.00
2022-10-15T19:15:31.466Z,-1.00
2022-10-15T19:18:18.044Z,-1.00
2022-10-15T19:21:07.906Z,-1.00
2022-10-15T19:23:54.782Z,-1.00
2022-10-15T19:26:42.813Z,-1.00
2022-10-15T19:29:35.089Z,-1.00
2022-10-15T19:32:22.265Z,-1.00
2022-10-15T19:35:09.030Z,-1.00
2022-10-15T19:37:55.863Z,-1.00
2022-10-15T19:40:45.932Z,-1.00
2022-10-15T19:43:36.385Z,-1.00
2022-10-15T19:46:23.478Z,-1.00
2022-10-15T19:49:12.113Z,-1.00
2022-10-15T19:52:01.079Z,-1.00
2022-10-15T19:54:48.084Z,-1.00
2022-10-15T19:57:34.959Z,-1.00
2022-10-15T20:00:22.601Z,-1.00
2022-10-15T20:03:09.726Z,-1.00
2022-10-15T20:05:57.834Z,-1.00
2022-10-15T20:08:44.749Z,-1.00
2022-10-15T20:11:32.378Z,-1.00
2022-10-15T20:14:19.081Z,-1.00
2022-10-15T20:17:05.797Z,-1.00
2022-10-15T20:19:52.963Z,-1.00
2022-10-15T20:22:40.045Z,-1.00
2022-10-15T20:25:28.411Z,-1.00
2022-10-15T20:28:18.320Z,-1.00
2022-10-15T20:31:12.360Z,-1.00
2022-10-15T20:34:00.961Z,-1.00
2022-10-15T20:36:52.453Z,-1.00
2022-10-15T20:39:40.032Z,-1.00
2022-10-15T20:42:27.168Z,-1.00
2022-10-15T20:45:15.387Z,-1.00
2022-10-15T20:48:03.195Z,-1.00
2022-10-15T20:50:53.486Z,-1.00
2022-10-15T20:53:41.685Z,-1.00
2022-10-15T20:56:28.613Z,-1.00
2022-10-15T20:59:15.263Z,-1.00
2022-10-15T21:02:03.223Z,-1.00
2022-10-15T21:04:52.770Z,-1.00
2022-10-15T21:07:39.675Z,-1.00
2022-10-15T21:10:26.737Z,-1.00
2022-10-15T21:13:13.586Z,-1.00
2022-10-15T21:16:01.678Z,-1.00
2022-10-15T21:18:48.281Z,-1.00
2022-10-15T21:21:35.327Z,-1.00
2022-10-15T21:24:22.361Z,-1.00
2022-10-15T21:27:10.345Z,-1.00
2022-10-15T21:29:57.146Z,-1.00
2022-10-15T21:32:44.059Z,-1.00
2022-10-15T21:35:30.743Z,-1.00
2022-10-15T21:38:17.480Z,-1.00
2022-10-15T21:41:04.391Z,-1.00
2022-10-15T21:43:51.993Z,-1.00
2022-10-15T21:46:42.714Z,-1.00
2022-10-15T21:49:29.766Z,-1.00
2022-10-15T21:52:16.751Z,-1.00
2022-10-15T21:55:03.466Z,-1.00
2022-10-15T21:57:50.422Z,-1.00
2022-10-15T22:00:37.988Z,-1.00
2022-10-15T22:03:25.198Z,-1.00
2022-10-15T22:06:12.507Z,-1.00
2022-10-15T22:08:59.894Z,-1.00
2022-10-15T22:11:46.934Z,-1.00
2022-10-15T22:14:33.751Z,-1.00
2022-10-15T22:17:20.954Z,-1.00
2022-10-15T22:20:08.759Z,-1.00
2022-10-15T22:22:55.540Z,-1.00
2022-10-15T22:25:42.535Z,-1.00
2022-10-15T22:28:29.788Z,-1.00
2022-10-15T22:31:17.398Z,-1.00
2022-10-15T22:34:04.276Z,-1.00
2022-10-15T22:36:51.549Z,-1.00
2022-10-15T22:39:39.996Z,-1.00
2022-10-15T22:42:27.150Z,-1.00
2022-10-15T22:45:14.040Z,-1.00
2022-10-15T22:48:01.321Z,-1.00
2022-10-15T22:50:55.780Z,-1.00
2022-10-15T22:53:43.070Z,-1.00
2022-10-15T22:56:31.262Z,-1.00
2022-10-15T22:59:19.842Z,-1.00
2022-10-15T23:02:06.225Z,-1.00
2022-10-15T23:04:53.043Z,-1.00
2022-10-15T23:07:42.252Z,-1.00
2022-10-15T23:10:29.301Z,-1.00
2022-10-15T23:13:16.415Z,-1.00
2022-10-15T23:16:08.336Z,-1.00
2022-10-15T23:18:58.020Z,-1.00
2022-10-15T23:21:53.842Z,-1.00
2022-10-15T23:24:40.467Z,-1.00
2022-10-15T23:27:27.732Z,-1.00
2022-10-15T23:30:24.747Z,-1.00
2022-10-15T23:33:12.550Z,-1.00
2022-10-15T23:36:01.229Z,-1.00
2022-10-15T23:38:54.694Z,-1.00
2022-10-15T23:41:43.596Z,-1.00
2022-10-15T23:44:31.046Z,-1.00
2022-10-15T23:47:17.392Z,-1.00
2022-10-15T23:50:04.441Z,-1.00
2022-10-15T23:52:51.462Z,-1.00
2022-10-15T23:55:41.982Z,-1.00
2022-10-15T23:58:28.822Z,-1.00
